Impacts TAF Board
For situational awareness. Not to be used for flight planning purposes.
IDs:

KMDW - Chicago/Midway Intl, IL, US

Issued at 2336 UTC 22 Oct 2018
Updated at 0240 UTC 23 Oct 2018
Potential Impact None Slight Moderate High
Time<<23/15Z 23/16Z 23/17Z 23/18Z 23/19Z 23/20Z 23/21Z 23/22Z 23/23Z 24/00Z 24/01Z 24/02Z 24/03Z>>
Type PRVL PRVL PRVL PRVL PRVL PRVL PRVL PRVL PRVL PRVL PRVL PRVL PRVL
VIS >6 >6 >6 >6 >6 >6 >6 >6 >6 >6 >6 >6 >6
CIG -- -- -- -- -- -- -- -- -- -- -- -- --
Cover SCT SCT SCT SCT SCT SCT SCT SCT SCT SCT SCT FEW FEW
FltCat VFR VFR VFR VFR VFR VFR VFR VFR VFR VFR VFR VFR VFR
WX -- -- -- -- -- -- -- -- -- -- -- -- --
WDir 340 340 340 340 340 340 20 20 20 20 20 360 360
WSpd 12 12 12 12 12 12 9 9 9 9 9 4 4
WGst -- -- -- -- -- -- -- -- -- -- -- -- --
Raw TAF
KMDW 222336Z 2300/2406 25008KT P6SM SKC
  FM230600 31010KT P6SM SKC
  FM231400 34012KT P6SM SCT040
  FM232100 02009KT P6SM SCT040
  FM240200 36004KT P6SM FEW040


METAR Board
Radar Display
Forecast Discussion
For situational awareness. Not to be used for flight planning purposes.